Time;durP1;ratioP1;P1;durP2;ratioP2;P2;SDS_P1;SDS_P2;PMS_P1;PMS_P2;Temp;Humidity;BMP_temperature;BMP_pressure;BME280_temperature;BME280_humidity;BME280_pressure;Samples;Min_cycle;Max_cycle;Signal;HPM_P1;HPM_P2
2022/07/16 00:03:18;;;;;;;4.82;2.05;;;18.10;92.20;;;;;;5051640;28;20057;-84
2022/07/16 00:05:44;;;;;;;7.40;2.35;;;18.00;92.20;;;;;;5052198;28;20063;-83
2022/07/16 00:08:10;;;;;;;5.38;2.17;;;18.10;92.30;;;;;;5051952;28;20451;-84
2022/07/16 00:10:35;;;;;;;6.65;2.60;;;18.00;92.40;;;;;;5051459;28;20120;-83
2022/07/16 00:13:02;;;;;;;3.92;2.08;;;18.00;92.50;;;;;;5051899;28;20064;-83
2022/07/16 00:15:29;;;;;;;5.05;2.10;;;18.00;92.50;;;;;;5033979;28;20104;-84
2022/07/16 00:20:47;;;;;;;5.55;2.30;;;18.00;92.70;;;;;;5035293;28;20067;-83
2022/07/16 00:23:13;;;;;;;5.47;2.50;;;18.00;92.80;;;;;;5033754;28;20484;-84
2022/07/16 00:25:39;;;;;;;4.03;2.15;;;18.00;92.80;;;;;;5033047;28;20028;-83
2022/07/16 00:28:04;;;;;;;4.05;2.13;;;18.00;92.80;;;;;;5034026;28;20033;-84
2022/07/16 00:30:30;;;;;;;4.32;2.20;;;18.00;92.80;;;;;;5033351;28;20033;-84
2022/07/16 00:32:56;;;;;;;5.70;2.15;;;18.00;92.90;;;;;;5051679;28;20051;-84
2022/07/16 00:35:21;;;;;;;4.43;2.17;;;18.10;92.90;;;;;;5051847;28;20021;-84
2022/07/16 00:37:47;;;;;;;6.22;2.40;;;18.10;92.90;;;;;;5051358;28;20017;-84
2022/07/16 00:40:13;;;;;;;5.18;2.25;;;18.00;92.90;;;;;;5051349;28;20025;-83
2022/07/16 00:42:39;;;;;;;4.55;2.20;;;18.10;92.90;;;;;;5051940;28;20396;-84
2022/07/16 00:45:05;;;;;;;5.63;2.03;;;18.10;93.00;;;;;;5033553;28;20025;-83
2022/07/16 00:47:31;;;;;;;8.65;2.65;;;18.10;93.00;;;;;;5049923;28;20028;-83
2022/07/16 00:49:57;;;;;;;6.55;2.47;;;18.10;93.00;;;;;;5051362;28;20043;-83
2022/07/16 00:52:23;;;;;;;4.28;2.20;;;18.10;92.90;;;;;;5051165;28;20033;-83
2022/07/16 00:54:49;;;;;;;5.90;2.50;;;18.00;92.90;;;;;;5050430;28;20033;-83
2022/07/16 00:57:15;;;;;;;3.60;2.15;;;18.10;93.00;;;;;;5050983;28;20025;-83
2022/07/16 00:59:41;;;;;;;3.80;2.20;;;18.10;93.00;;;;;;5050963;28;20083;-84
2022/07/16 01:02:07;;;;;;;6.97;2.78;;;18.20;93.30;;;;;;5049942;28;20029;-83
2022/07/16 01:04:33;;;;;;;5.75;2.80;;;18.20;93.00;;;;;;5051520;28;20490;-84
2022/07/16 01:06:59;;;;;;;5.35;2.40;;;18.20;93.20;;;;;;5033344;28;20116;-84
2022/07/16 01:09:26;;;;;;;6.70;2.65;;;18.20;93.40;;;;;;5033338;28;20568;-84
2022/07/16 01:11:53;;;;;;;5.20;2.30;;;18.20;93.60;;;;;;5049804;28;20039;-83
2022/07/16 01:14:19;;;;;;;5.75;2.30;;;18.20;93.60;;;;;;5050640;28;20032;-84
2022/07/16 01:16:45;;;;;;;5.07;2.30;;;18.20;93.60;;;;;;5050546;28;20035;-83
2022/07/16 01:19:12;;;;;;;4.45;2.05;;;18.20;93.60;;;;;;5050911;28;20115;-83
2022/07/16 01:21:39;;;;;;;4.15;2.45;;;18.10;93.60;;;;;;5049299;28;20082;-84
2022/07/16 01:24:05;;;;;;;6.30;2.35;;;18.10;93.60;;;;;;5050502;28;20033;-83
2022/07/16 01:26:30;;;;;;;4.57;2.10;;;18.10;93.50;;;;;;5049017;28;20486;-84
2022/07/16 01:28:56;;;;;;;6.95;2.58;;;18.10;93.60;;;;;;5050381;28;20082;-83
2022/07/16 01:31:22;;;;;;;5.85;2.28;;;18.00;93.60;;;;;;5050277;28;20412;-84
2022/07/16 01:34:24;;;;;;;5.95;2.40;;;18.00;93.60;;;;;;5032758;28;20030;-83
2022/07/16 01:36:34;;;;;;;6.78;2.55;;;18.00;93.60;;;;;;5032225;28;20524;-83
2022/07/16 01:39:00;;;;;;;4.43;2.03;;;18.00;93.70;;;;;;5051992;28;20115;-83
2022/07/16 01:41:26;;;;;;;5.07;2.22;;;17.90;93.80;;;;;;5054348;28;20025;-83
2022/07/16 01:43:52;;;;;;;5.38;2.28;;;17.90;93.80;;;;;;5054401;28;20044;-84
2022/07/16 01:46:17;;;;;;;6.15;2.45;;;17.90;93.90;;;;;;5053230;28;20060;-84
2022/07/16 01:48:43;;;;;;;7.13;2.25;;;17.90;93.90;;;;;;5054233;28;20389;-83
2022/07/16 01:51:09;;;;;;;6.28;2.50;;;17.90;94.20;;;;;;5054063;28;20033;-83
2022/07/16 01:53:34;;;;;;;8.55;2.78;;;17.90;94.00;;;;;;5054443;28;20033;-84
2022/07/16 01:56:00;;;;;;;4.20;2.60;;;17.90;94.00;;;;;;5054355;28;20029;-84
2022/07/16 01:58:26;;;;;;;3.92;2.40;;;17.90;94.00;;;;;;5053085;28;20393;-83
2022/07/16 02:00:53;;;;;;;3.33;2.15;;;18.00;94.00;;;;;;5053746;28;20067;-83
2022/07/16 02:03:19;;;;;;;5.90;2.35;;;17.90;94.00;;;;;;5054274;28;20228;-83
2022/07/16 02:05:45;;;;;;;7.22;2.80;;;17.90;94.00;;;;;;5053894;28;20439;-83
2022/07/16 02:08:11;;;;;;;4.38;2.30;;;18.00;94.00;;;;;;5053169;28;20032;-83
2022/07/16 02:10:38;;;;;;;6.13;2.28;;;18.00;94.00;;;;;;5053749;28;20029;-83
2022/07/16 02:13:04;;;;;;;4.57;2.13;;;18.00;94.00;;;;;;5053889;28;20033;-83
2022/07/16 02:15:31;;;;;;;4.10;2.05;;;18.00;94.00;;;;;;5054082;28;20040;-83
2022/07/16 02:17:57;;;;;;;4.57;2.33;;;18.00;94.00;;;;;;5053681;28;20029;-84
2022/07/16 02:20:23;;;;;;;4.22;2.30;;;17.90;94.00;;;;;;5035542;28;20124;-84
2022/07/16 02:22:48;;;;;;;5.13;2.35;;;18.00;94.00;;;;;;5035947;28;20443;-83
2022/07/16 02:25:14;;;;;;;6.40;2.63;;;18.00;93.70;;;;;;5053748;28;20386;-83
2022/07/16 02:28:05;;;;;;;11.02;3.35;;;18.00;93.50;;;;;;5053480;28;20025;-83
2022/07/16 02:30:26;;;;;;;5.07;2.60;;;18.10;93.20;;;;;;5035782;28;20029;-83
2022/07/16 02:32:52;;;;;;;6.47;2.33;;;18.20;91.30;;;;;;5053511;28;20386;-83
2022/07/16 02:35:18;;;;;;;6.03;2.20;;;18.20;91.00;;;;;;5053516;28;20542;-83
2022/07/16 02:37:44;;;;;;;5.82;2.20;;;18.30;91.10;;;;;;5053352;28;20025;-83
2022/07/16 02:40:10;;;;;;;4.97;1.77;;;18.40;91.20;;;;;;5053090;28;20036;-84
2022/07/16 02:42:35;;;;;;;3.30;1.85;;;18.40;91.00;;;;;;5035486;28;20044;-83
2022/07/16 02:45:01;;;;;;;4.15;2.00;;;18.40;90.90;;;;;;5052184;28;20033;-83
2022/07/16 02:47:27;;;;;;;4.97;1.92;;;18.40;91.00;;;;;;5051950;28;20473;-83
2022/07/16 02:49:52;;;;;;;6.18;4.05;;;18.40;91.50;;;;;;5034685;28;20025;-83
2022/07/16 02:52:18;;;;;;;6.55;2.40;;;18.40;92.20;;;;;;5053251;28;20512;-83
2022/07/16 02:54:44;;;;;;;5.07;2.38;;;18.30;92.70;;;;;;5053299;28;20044;-83
2022/07/16 02:57:10;;;;;;;5.00;2.33;;;18.30;93.00;;;;;;5035308;28;20095;-83
2022/07/16 02:59:36;;;;;;;6.60;2.40;;;18.20;93.20;;;;;;5053090;28;20474;-83
2022/07/16 03:02:02;;;;;;;7.47;3.60;;;18.30;93.20;;;;;;5053017;28;20095;-83
2022/07/16 03:04:27;;;;;;;4.47;2.38;;;18.20;92.30;;;;;;5053116;28;20037;-83
2022/07/16 03:06:53;;;;;;;4.65;2.15;;;18.30;91.50;;;;;;5035144;28;20033;-84
2022/07/16 03:09:19;;;;;;;7.15;2.15;;;18.30;91.30;;;;;;5051534;28;20482;-83
2022/07/16 03:11:44;;;;;;;3.60;1.67;;;18.40;92.40;;;;;;5051323;28;20048;-84
2022/07/16 03:14:10;;;;;;;4.30;1.65;;;18.40;91.60;;;;;;5052713;28;20533;-85
2022/07/16 03:16:36;;;;;;;4.80;1.98;;;18.40;91.80;;;;;;5034702;28;20110;-84
2022/07/16 03:19:02;;;;;;;6.13;2.40;;;18.40;92.60;;;;;;5052444;28;20025;-84
2022/07/16 03:21:27;;;;;;;3.95;2.17;;;18.30;93.20;;;;;;5052723;28;20024;-84
2022/07/16 03:23:53;;;;;;;7.80;2.35;;;18.20;93.50;;;;;;5052722;28;20094;-84
2022/07/16 03:26:19;;;;;;;4.80;2.10;;;18.20;93.70;;;;;;5052682;28;20033;-84
2022/07/16 03:28:45;;;;;;;6.05;2.47;;;18.20;93.70;;;;;;5052687;28;20524;-84
2022/07/16 03:31:10;;;;;;;4.80;2.10;;;18.20;93.50;;;;;;5052211;28;20399;-84
2022/07/16 03:33:36;;;;;;;4.60;2.00;;;18.20;92.90;;;;;;5034685;28;20025;-84
2022/07/16 03:36:02;;;;;;;5.28;1.77;;;18.30;92.10;;;;;;5052204;28;20477;-84
2022/07/16 03:41:15;;;;;;;6.50;2.45;;;18.30;91.70;;;;;;5052143;28;20043;-84
2022/07/16 03:43:40;;;;;;;5.15;2.20;;;18.30;92.10;;;;;;5052679;28;20033;-84
2022/07/16 03:46:06;;;;;;;6.00;2.30;;;18.30;92.20;;;;;;5050818;28;20190;-84
2022/07/16 03:48:32;;;;;;;6.00;2.30;;;18.30;92.30;;;;;;5051966;28;20079;-84
2022/07/16 03:50:57;;;;;;;6.95;2.28;;;18.30;92.30;;;;;;5050570;28;20501;-84
2022/07/16 03:53:23;;;;;;;5.18;2.20;;;18.40;92.40;;;;;;5052039;28;20064;-84
2022/07/16 03:55:49;;;;;;;3.55;2.00;;;18.40;92.40;;;;;;5051914;28;20025;-84
2022/07/16 03:58:14;;;;;;;3.05;2.03;;;18.30;92.50;;;;;;5051917;28;20025;-84
2022/07/16 04:00:40;;;;;;;5.25;2.00;;;18.40;92.40;;;;;;5050695;28;20501;-84
2022/07/16 04:03:06;;;;;;;3.63;1.77;;;18.40;92.20;;;;;;5034076;28;20061;-84
2022/07/16 04:05:32;;;;;;;5.15;2.10;;;18.40;91.90;;;;;;5034093;28;20064;-84
2022/07/16 04:07:57;;;;;;;4.18;2.30;;;18.40;92.10;;;;;;5051630;28;20070;-84
2022/07/16 04:10:23;;;;;;;5.30;2.42;;;18.30;92.70;;;;;;5051363;28;20028;-84
2022/07/16 04:12:49;;;;;;;4.25;2.38;;;18.30;93.40;;;;;;5050342;28;20048;-84
2022/07/16 04:15:14;;;;;;;5.00;2.30;;;18.20;93.60;;;;;;5051748;28;20082;-84
2022/07/16 04:17:40;;;;;;;4.60;2.45;;;18.20;93.80;;;;;;5051345;28;20070;-84
2022/07/16 04:20:06;;;;;;;6.40;2.30;;;18.10;94.00;;;;;;5033347;28;20033;-85
2022/07/16 04:22:32;;;;;;;6.13;2.92;;;18.10;94.00;;;;;;5033802;28;20025;-84
2022/07/16 04:24:58;;;;;;;5.60;2.45;;;18.10;94.10;;;;;;5051390;28;20520;-84
2022/07/16 04:27:24;;;;;;;5.53;2.03;;;18.10;94.10;;;;;;5049931;28;20031;-84
2022/07/16 04:29:49;;;;;;;6.75;2.30;;;18.10;94.10;;;;;;5016703;28;20029;-84
2022/07/16 04:32:15;;;;;;;5.47;2.20;;;18.10;94.10;;;;;;5051210;28;20488;-84
2022/07/16 04:34:41;;;;;;;4.15;1.70;;;18.20;94.00;;;;;;5051366;28;20033;-84
2022/07/16 04:37:06;;;;;;;5.13;1.83;;;18.20;93.00;;;;;;5051404;28;20060;-84
2022/07/16 04:39:32;;;;;;;5.20;1.85;;;18.20;91.90;;;;;;5051237;28;20079;-84
2022/07/16 04:41:58;;;;;;;4.00;1.67;;;18.30;91.60;;;;;;5051252;28;20078;-84
2022/07/16 04:44:24;;;;;;;4.15;2.20;;;18.30;91.50;;;;;;5051227;28;20474;-84
2022/07/16 04:46:49;;;;;;;5.18;2.03;;;18.40;91.20;;;;;;5051071;28;20481;-84
2022/07/16 04:49:15;;;;;;;5.00;2.47;;;18.40;91.20;;;;;;5050994;28;20546;-84
2022/07/16 04:51:41;;;;;;;6.50;2.92;;;18.40;91.00;;;;;;5050939;28;20470;-84
2022/07/16 04:54:07;;;;;;;5.53;2.53;;;18.40;90.90;;;;;;5033362;28;20103;-84
2022/07/16 04:56:32;;;;;;;5.25;2.17;;;18.40;90.70;;;;;;5050866;28;20429;-84
2022/07/16 04:58:58;;;;;;;5.05;2.15;;;18.50;90.60;;;;;;5050922;28;20032;-84
2022/07/16 05:01:24;;;;;;;5.65;2.63;;;18.50;90.40;;;;;;5050801;28;20064;-84
2022/07/16 05:03:50;;;;;;;5.38;2.42;;;18.40;90.30;;;;;;5051117;28;20047;-84
2022/07/16 05:06:15;;;;;;;4.75;2.10;;;18.50;90.40;;;;;;5050887;28;20028;-84
2022/07/16 05:08:41;;;;;;;5.05;2.38;;;18.50;90.40;;;;;;5050745;28;20032;-84
2022/07/16 05:11:07;;;;;;;4.65;2.15;;;18.50;90.40;;;;;;5050681;28;20045;-84
2022/07/16 05:13:32;;;;;;;5.93;2.63;;;18.50;90.30;;;;;;5050996;28;20473;-84
2022/07/16 05:15:58;;;;;;;4.47;2.70;;;18.50;90.30;;;;;;5050799;28;20440;-84
2022/07/16 05:18:24;;;;;;;4.50;2.30;;;18.50;90.30;;;;;;5033048;28;20052;-84
2022/07/16 05:20:49;;;;;;;9.38;2.70;;;18.50;90.30;;;;;;5050494;28;20037;-84
2022/07/16 05:23:15;;;;;;;8.25;2.55;;;18.50;90.20;;;;;;5050736;28;20047;-84
2022/07/16 05:25:41;;;;;;;5.78;2.38;;;18.50;90.20;;;;;;5050459;28;20037;-85
2022/07/16 05:28:07;;;;;;;4.45;2.22;;;18.50;90.30;;;;;;5050556;28;20037;-85
2022/07/16 05:30:32;;;;;;;5.70;2.25;;;18.60;90.40;;;;;;5050424;28;20063;-84
2022/07/16 05:32:58;;;;;;;6.40;2.80;;;18.60;90.50;;;;;;5050855;28;20056;-85
2022/07/16 05:35:24;;;;;;;6.20;2.75;;;18.60;90.50;;;;;;5049521;28;20029;-84
2022/07/16 05:37:50;;;;;;;7.10;3.25;;;18.60;90.50;;;;;;5050510;28;20017;-82
2022/07/16 05:40:16;;;;;;;5.07;2.60;;;18.60;90.50;;;;;;5050282;28;20441;-85
2022/07/16 05:42:45;;;;;;;5.10;2.63;;;18.60;90.60;;;;;;5050770;28;20049;-83
2022/07/16 05:45:11;;;;;;;9.55;3.55;;;18.60;90.70;;;;;;5032826;28;20025;-83
2022/07/16 05:47:37;;;;;;;6.00;3.22;;;18.60;90.80;;;;;;5049526;28;20074;-82
2022/07/16 05:50:12;;;;;;;5.90;3.53;;;18.60;90.90;;;;;;5049570;28;20330;-83
2022/07/16 05:52:38;;;;;;;4.57;3.63;;;18.60;91.30;;;;;;5049470;28;20128;-83
2022/07/16 05:55:04;;;;;;;6.07;3.22;;;18.60;91.40;;;;;;5049522;28;20120;-83
2022/07/16 05:57:30;;;;;;;7.20;3.28;;;18.60;91.70;;;;;;5050559;28;20021;-82
2022/07/16 05:59:58;;;;;;;7.32;3.92;;;18.70;91.80;;;;;;5050350;28;20047;-82
2022/07/16 06:02:24;;;;;;;7.78;4.38;;;18.70;92.30;;;;;;5107070;23;20055;-81
2022/07/16 06:04:50;;;;;;;10.30;4.55;;;18.70;92.80;;;;;;5089229;28;20076;-82
2022/07/16 06:07:15;;;;;;;7.15;4.32;;;18.70;93.00;;;;;;5090193;28;20488;-81
2022/07/16 06:09:41;;;;;;;8.88;4.65;;;18.70;93.30;;;;;;5090239;28;20047;-81
2022/07/16 06:12:07;;;;;;;11.43;5.50;;;18.70;93.50;;;;;;5090155;28;20032;-81
2022/07/16 06:14:33;;;;;;;8.75;4.45;;;18.80;93.80;;;;;;5090308;28;20048;-82
2022/07/16 06:16:59;;;;;;;9.10;4.90;;;18.80;93.80;;;;;;5090380;28;20063;-82
2022/07/16 06:19:24;;;;;;;10.20;5.25;;;18.80;94.40;;;;;;5090464;28;20043;-81
2022/07/16 06:21:50;;;;;;;6.85;4.35;;;18.70;94.60;;;;;;5090098;28;20036;-81
2022/07/16 06:24:16;;;;;;;11.50;5.50;;;18.80;94.60;;;;;;5091799;28;20032;-81
2022/07/16 06:26:46;;;;;;;8.88;5.85;;;18.80;94.40;;;;;;5092424;28;20061;-81
2022/07/16 06:29:14;;;;;;;18.48;7.35;;;18.90;94.60;;;;;;5093899;28;20032;-81
2022/07/16 06:31:40;;;;;;;11.13;6.35;;;18.90;94.60;;;;;;5093797;28;20028;-82
2022/07/16 06:34:06;;;;;;;10.70;5.40;;;18.90;94.50;;;;;;5092560;28;20043;-81
2022/07/16 06:36:32;;;;;;;9.80;5.90;;;18.90;94.60;;;;;;5093592;28;20476;-82
2022/07/16 06:38:57;;;;;;;9.88;5.07;;;18.90;94.60;;;;;;5093565;28;20077;-82
2022/07/16 06:41:23;;;;;;;14.05;5.78;;;18.90;94.50;;;;;;5075556;28;20480;-82
2022/07/16 06:43:52;;;;;;;11.93;5.60;;;18.90;94.20;;;;;;5093848;28;20027;-81
2022/07/16 06:46:18;;;;;;;18.05;5.60;;;18.90;94.20;;;;;;5093431;28;20040;-81
2022/07/16 06:48:43;;;;;;;10.63;5.30;;;18.90;94.30;;;;;;5093341;28;20028;-82
2022/07/16 06:51:09;;;;;;;6.63;3.80;;;18.90;94.30;;;;;;5093335;28;20384;-82
2022/07/16 06:53:36;;;;;;;7.15;3.63;;;19.00;94.00;;;;;;5093447;28;20158;-81
2022/07/16 06:56:02;;;;;;;7.32;3.30;;;19.00;94.00;;;;;;5093188;28;20035;-81
2022/07/16 06:58:28;;;;;;;5.93;3.10;;;19.00;94.10;;;;;;5093297;28;20028;-81
2022/07/16 07:00:54;;;;;;;7.10;2.67;;;19.10;93.60;;;;;;5093324;28;20034;-81
2022/07/16 07:03:20;;;;;;;5.15;2.38;;;19.10;93.50;;;;;;5093243;28;20256;-82
2022/07/16 07:05:45;;;;;;;4.60;2.05;;;19.10;93.70;;;;;;5093078;28;20023;-81
2022/07/16 07:08:11;;;;;;;5.28;2.28;;;19.10;93.50;;;;;;5093676;28;20070;-81
2022/07/16 07:10:37;;;;;;;4.20;1.95;;;19.20;93.30;;;;;;5092799;28;20024;-81
2022/07/16 07:13:03;;;;;;;3.92;1.50;;;19.20;93.20;;;;;;5092968;28;20023;-82
2022/07/16 07:15:29;;;;;;;3.03;1.60;;;19.30;92.80;;;;;;5092990;28;20073;-82
2022/07/16 07:17:55;;;;;;;3.67;1.60;;;19.30;92.70;;;;;;5092808;28;20025;-81
2022/07/16 07:20:20;;;;;;;2.25;1.17;;;19.30;91.20;;;;;;5092675;28;20032;-81
2022/07/16 07:22:46;;;;;;;4.38;2.00;;;19.30;91.20;;;;;;5092790;28;20077;-81
2022/07/16 07:25:12;;;;;;;2.78;1.40;;;19.40;91.40;;;;;;5092949;28;20073;-82
2022/07/16 07:27:38;;;;;;;2.50;1.00;;;19.30;90.40;;;;;;5092706;28;20392;-82
2022/07/16 07:30:04;;;;;;;2.80;1.20;;;19.40;89.50;;;;;;5092431;28;20020;-82
2022/07/16 07:32:30;;;;;;;2.55;1.20;;;19.40;89.80;;;;;;5092670;28;20145;-81
2022/07/16 07:34:56;;;;;;;2.25;1.30;;;19.50;89.90;;;;;;5092111;28;20056;-82
2022/07/16 07:37:22;;;;;;;2.78;1.08;;;19.50;88.30;;;;;;5091755;28;20154;-82
2022/07/16 07:39:47;;;;;;;3.80;1.00;;;19.50;88.40;;;;;;5092375;28;20080;-82
2022/07/16 07:42:13;;;;;;;1.58;0.95;;;19.50;86.60;;;;;;5092480;28;20485;-82
2022/07/16 07:44:39;;;;;;;2.30;1.00;;;19.50;86.40;;;;;;5092511;28;20026;-82
2022/07/16 07:47:05;;;;;;;2.83;1.10;;;19.50;87.10;;;;;;5092589;28;20035;-82
2022/07/16 07:49:30;;;;;;;3.83;1.20;;;19.50;88.10;;;;;;5092213;28;20365;-82
2022/07/16 07:51:56;;;;;;;1.90;0.90;;;19.50;87.90;;;;;;5092093;28;20043;-81
2022/07/16 07:54:22;;;;;;;2.42;1.10;;;19.60;86.90;;;;;;5092373;28;20036;-81
2022/07/16 07:56:49;;;;;;;2.45;1.05;;;19.60;87.70;;;;;;5092078;28;20030;-81
2022/07/16 07:59:14;;;;;;;3.67;1.15;;;19.60;85.80;;;;;;5092130;28;20028;-81
2022/07/16 08:01:40;;;;;;;4.75;1.70;;;19.60;85.10;;;;;;5091980;28;20047;-81
2022/07/16 08:04:06;;;;;;;5.68;2.60;;;19.60;85.10;;;;;;5090833;28;20039;-81
2022/07/16 08:06:32;;;;;;;3.42;1.65;;;19.60;86.00;;;;;;5091833;28;20480;-81
2022/07/16 08:08:57;;;;;;;3.70;1.38;;;19.60;85.80;;;;;;5091717;28;20519;-82
2022/07/16 08:11:23;;;;;;;3.00;1.40;;;19.70;86.30;;;;;;5091958;28;20024;-81
2022/07/16 08:13:49;;;;;;;2.97;1.40;;;19.70;87.00;;;;;;5091980;28;20028;-81
2022/07/16 08:16:15;;;;;;;3.72;1.33;;;19.60;84.40;;;;;;5091709;28;20028;-81
2022/07/16 08:18:40;;;;;;;5.07;2.15;;;19.60;84.90;;;;;;5091715;28;20038;-81
2022/07/16 08:21:06;;;;;;;4.38;1.30;;;19.60;86.00;;;;;;5091459;28;20039;-81
2022/07/16 08:26:18;;;;;;;2.30;1.10;;;19.70;84.90;;;;;;5059002;28;20036;-81
2022/07/16 08:28:44;;;;;;;3.00;1.33;;;19.80;84.30;;;;;;5091417;28;20530;-81
2022/07/16 08:31:11;;;;;;;2.53;1.10;;;19.80;85.10;;;;;;5091508;28;20214;-81
2022/07/16 08:33:36;;;;;;;4.75;2.00;;;19.90;84.60;;;;;;5091450;28;20044;-81
2022/07/16 08:36:02;;;;;;;3.95;1.80;;;20.00;84.50;;;;;;5091399;28;20164;-81
2022/07/16 08:38:28;;;;;;;2.92;1.10;;;20.00;84.90;;;;;;5090061;28;20028;-82
2022/07/16 08:40:57;;;;;;;2.28;1.30;;;20.00;84.30;;;;;;5091234;28;20028;-81
2022/07/16 08:43:23;;;;;;;3.72;1.60;;;20.00;84.40;;;;;;5091344;28;20089;-81
2022/07/16 08:45:50;;;;;;;7.72;2.92;;;20.00;84.40;;;;;;5091233;28;20427;-81
2022/07/16 08:48:16;;;;;;;10.13;3.05;;;20.00;84.60;;;;;;5089628;28;20497;-82
2022/07/16 08:50:43;;;;;;;6.57;2.70;;;20.10;84.10;;;;;;5090931;28;20036;-81
2022/07/16 08:53:09;;;;;;;4.13;1.75;;;20.00;84.00;;;;;;5089915;28;20016;-81
2022/07/16 08:55:38;;;;;;;6.72;2.17;;;20.00;84.50;;;;;;5091181;28;20032;-81
2022/07/16 08:58:06;;;;;;;4.93;1.98;;;20.00;84.70;;;;;;5090133;28;20032;-81
2022/07/16 09:00:33;;;;;;;5.55;2.13;;;19.90;84.60;;;;;;5089676;28;20058;-81
2022/07/16 09:02:59;;;;;;;4.75;1.40;;;19.90;85.50;;;;;;5072974;28;20039;-81
2022/07/16 09:05:26;;;;;;;5.10;1.58;;;19.90;83.80;;;;;;5091332;28;20472;-81
2022/07/16 09:07:53;;;;;;;2.65;1.40;;;19.90;83.20;;;;;;5089748;28;20032;-82
2022/07/16 09:10:19;;;;;;;2.80;1.20;;;19.90;83.50;;;;;;5089227;28;20127;-81
2022/07/16 09:12:47;;;;;;;3.72;1.48;;;19.90;83.40;;;;;;5090950;28;20079;-81
2022/07/16 09:15:34;;;;;;;4.18;1.33;;;20.00;83.00;;;;;;5089668;28;20028;-82
2022/07/16 09:18:10;;;;;;;4.43;1.65;;;20.10;82.80;;;;;;5089322;28;20056;-81
2022/07/16 09:20:39;;;;;;;4.25;1.90;;;20.10;82.50;;;;;;5090575;28;20468;-81
2022/07/16 09:23:16;;;;;;;;;;;20.20;82.10;;;;;;5091221;28;20024;-81
2022/07/16 09:25:54;;;;;;;3.92;1.40;;;20.20;81.80;;;;;;5089356;28;19959;-81
2022/07/16 09:28:21;;;;;;;3.65;1.48;;;20.20;82.20;;;;;;5090859;28;20422;-81
2022/07/16 09:30:47;;;;;;;3.58;1.45;;;20.20;81.50;;;;;;5090491;28;20036;-81
2022/07/16 09:33:16;;;;;;;2.80;1.10;;;20.30;80.80;;;;;;5090692;28;20123;-81
2022/07/16 09:35:42;;;;;;;6.68;2.60;;;20.30;80.70;;;;;;5090613;28;20476;-82
2022/07/16 09:38:09;;;;;;;3.90;1.60;;;20.30;81.60;;;;;;5090653;28;20070;-81
2022/07/16 09:40:46;;;;;;;3.42;1.25;;;20.30;81.50;;;;;;5090354;28;20397;-81
2022/07/16 09:43:15;;;;;;;3.67;1.40;;;20.30;82.00;;;;;;5090640;28;20073;-81
2022/07/16 09:45:46;;;;;;;3.17;1.52;;;20.40;81.50;;;;;;5090480;28;20024;-81
2022/07/16 09:48:20;;;;;;;4.18;1.67;;;20.40;81.70;;;;;;5090604;28;20161;-81
2022/07/16 09:50:45;;;;;;;4.75;1.83;;;20.50;81.70;;;;;;5090116;28;20036;-82
2022/07/16 09:53:20;;;;;;;5.90;1.90;;;20.40;81.20;;;;;;5090480;28;20028;-81
2022/07/16 09:55:58;;;;;;;5.85;1.40;;;20.40;81.00;;;;;;5090379;28;20020;-81
2022/07/16 09:58:24;;;;;;;6.15;1.30;;;20.30;81.10;;;;;;5072423;28;20024;-82
2022/07/16 10:00:50;;;;;;;6.63;1.90;;;20.20;81.10;;;;;;5094352;28;20089;-81
2022/07/16 10:03:16;;;;;;;5.10;1.60;;;20.30;81.20;;;;;;5094229;28;20409;-81
2022/07/16 10:05:42;;;;;;;2.58;1.17;;;20.30;81.20;;;;;;5094326;28;20032;-82
2022/07/16 10:08:08;;;;;;;4.50;1.10;;;20.40;79.80;;;;;;5094433;28;20038;-82
2022/07/16 10:10:34;;;;;;;2.83;1.20;;;20.50;79.20;;;;;;5092801;28;20024;-82
2022/07/16 10:13:00;;;;;;;3.67;1.20;;;20.60;78.60;;;;;;5092846;28;20028;-82
2022/07/16 10:15:26;;;;;;;2.35;1.33;;;20.70;77.70;;;;;;5094291;28;20025;-81
2022/07/16 10:17:52;;;;;;;7.45;1.65;;;20.60;78.00;;;;;;5093882;28;20123;-81
2022/07/16 10:20:20;;;;;;;4.22;1.38;;;20.70;77.60;;;;;;5093982;28;20085;-81
2022/07/16 10:22:48;;;;;;;3.55;1.25;;;20.80;77.20;;;;;;5094217;28;20032;-82
2022/07/16 10:25:20;;;;;;;5.67;1.40;;;20.70;77.40;;;;;;5094384;28;20032;-81
2022/07/16 10:27:46;;;;;;;5.15;1.85;;;20.70;77.80;;;;;;5093828;28;20274;-81
2022/07/16 10:30:16;;;;;;;2.55;1.40;;;20.80;77.30;;;;;;5093583;28;20043;-82
2022/07/16 10:33:02;;;;;;;6.70;2.20;;;20.80;77.80;;;;;;5094322;28;20043;-81
2022/07/16 10:35:32;;;;;;;4.25;1.67;;;20.80;78.40;;;;;;5093878;28;20472;-81
2022/07/16 10:38:11;;;;;;;5.50;1.60;;;20.80;78.30;;;;;;5094254;28;20430;-81
2022/07/16 10:40:38;;;;;;;4.40;1.58;;;20.80;78.80;;;;;;5093501;28;20077;-82
2022/07/16 10:43:22;;;;;;;5.00;1.73;;;20.70;78.70;;;;;;5093555;28;20032;-81
2022/07/16 10:45:52;;;;;;;4.25;1.25;;;20.70;77.80;;;;;;5093482;28;20426;-81
2022/07/16 10:48:19;;;;;;;6.25;1.60;;;20.70;78.70;;;;;;5093722;28;20081;-81
2022/07/16 10:51:10;;;;;;;6.30;1.75;;;20.70;77.80;;;;;;5093290;28;20432;-81
2022/07/16 10:53:56;;;;;;;4.78;1.50;;;20.80;77.60;;;;;;5093696;28;20020;-81
2022/07/16 10:56:39;;;;;;;4.05;1.23;;;20.80;77.10;;;;;;5093222;28;20365;-81
2022/07/16 10:59:09;;;;;;;3.92;1.33;;;20.90;78.20;;;;;;5093278;28;20025;-81
2022/07/16 11:01:36;;;;;;;3.97;1.23;;;20.90;78.00;;;;;;5092865;28;20126;-81
2022/07/16 11:04:03;;;;;;;4.57;1.45;;;20.90;77.40;;;;;;5093381;28;20027;-81
2022/07/16 11:06:29;;;;;;;2.38;1.10;;;20.90;78.00;;;;;;5091873;28;20032;-81
2022/07/16 11:09:00;;;;;;;2.47;1.15;;;20.90;77.10;;;;;;5091775;28;20032;-81
2022/07/16 11:11:32;;;;;;;4.03;1.20;;;20.90;77.60;;;;;;5074539;28;20476;-82
2022/07/16 11:13:59;;;;;;;6.15;2.33;;;21.00;77.40;;;;;;5093050;28;20404;-81
2022/07/16 11:16:25;;;;;;;6.60;1.50;;;21.00;76.70;;;;;;5091615;28;20035;-81
2022/07/16 11:18:51;;;;;;;4.65;1.50;;;21.10;76.60;;;;;;5091648;28;20024;-81
2022/07/16 11:21:16;;;;;;;3.42;1.60;;;21.10;75.80;;;;;;5091663;28;20038;-81
2022/07/16 11:24:05;;;;;;;4.45;1.35;;;21.00;76.00;;;;;;5091613;28;20398;-82
2022/07/16 11:26:31;;;;;;;6.00;1.30;;;21.00;76.50;;;;;;5092736;28;20055;-82
2022/07/16 11:29:02;;;;;;;3.95;1.38;;;21.10;77.20;;;;;;5092562;28;20090;-82
2022/07/16 11:31:36;;;;;;;4.20;1.40;;;21.00;76.70;;;;;;5091523;28;20101;-82
2022/07/16 11:34:09;;;;;;;7.30;1.50;;;21.10;77.00;;;;;;5092791;28;20028;-81
2022/07/16 11:36:44;;;;;;;5.35;1.40;;;21.20;76.40;;;;;;5091468;28;20032;-81
2022/07/16 11:39:17;;;;;;;3.72;1.58;;;21.20;76.20;;;;;;5092462;28;20040;-81
2022/07/16 11:41:52;;;;;;;5.05;1.23;;;21.10;76.30;;;;;;5092410;28;20139;-81
2022/07/16 11:44:29;;;;;;;12.00;1.55;;;21.00;76.70;;;;;;5092484;28;20105;-81
2022/07/16 11:47:09;;;;;;;6.47;1.23;;;21.10;75.80;;;;;;5091221;28;20493;-81
2022/07/16 11:49:40;;;;;;;3.22;1.10;;;21.10;76.10;;;;;;5092206;28;20032;-81
2022/07/16 11:52:24;;;;;;;4.00;1.10;;;21.10;75.80;;;;;;5092219;28;20120;-81
2022/07/16 11:54:53;;;;;;;4.22;1.50;;;21.20;76.00;;;;;;5092448;28;20031;-81
2022/07/16 11:57:19;;;;;;;3.92;1.08;;;21.20;76.20;;;;;;5092195;28;20047;-81
2022/07/16 11:59:47;;;;;;;4.43;1.23;;;21.20;76.00;;;;;;5090781;28;20048;-81
2022/07/16 12:02:18;;;;;;;3.13;1.20;;;21.20;76.10;;;;;;5101746;23;20048;-79
2022/07/16 12:04:50;;;;;;;4.53;1.55;;;21.30;75.80;;;;;;5074229;28;20040;-79
2022/07/16 12:07:25;;;;;;;6.95;2.92;;;21.40;75.40;;;;;;5092019;28;20103;-79
2022/07/16 12:09:53;;;;;;;5.75;1.77;;;21.30;74.90;;;;;;5091842;28;20028;-79
2022/07/16 12:12:29;;;;;;;4.10;1.35;;;21.30;74.00;;;;;;5091917;28;20106;-79
2022/07/16 12:14:59;;;;;;;5.80;1.65;;;21.30;74.60;;;;;;5091992;28;20088;-79
2022/07/16 12:17:32;;;;;;;3.72;1.40;;;21.30;74.90;;;;;;5091969;28;20107;-79
2022/07/16 12:20:26;;;;;;;3.30;1.00;;;21.30;74.10;;;;;;5091586;28;20503;-79
2022/07/16 12:22:52;;;;;;;3.33;1.20;;;21.40;74.00;;;;;;5079982;28;20506;-78
2022/07/16 12:25:31;;;;;;;3.22;1.15;;;21.40;73.90;;;;;;5073729;28;20123;-80
2022/07/16 12:28:09;;;;;;;3.35;1.15;;;21.40;73.30;;;;;;5091649;28;20028;-80
2022/07/16 12:31:15;;;;;;;4.72;1.20;;;21.60;72.60;;;;;;5091403;28;20384;-79
2022/07/16 12:33:51;;;;;;;2.97;1.30;;;21.70;71.70;;;;;;5009284;28;20110;-80
2022/07/16 12:36:18;;;;;;;3.63;1.30;;;21.80;71.70;;;;;;4992645;28;20145;-79
2022/07/16 12:38:55;;;;;;;3.28;0.90;;;21.90;72.10;;;;;;5053331;28;20093;-80
2022/07/16 12:41:33;;;;;;;3.85;1.33;;;22.10;71.70;;;;;;5091335;28;20036;-80
2022/07/16 12:44:01;;;;;;;3.50;1.08;;;22.30;70.40;;;;;;5073150;28;20040;-80
2022/07/16 12:46:30;;;;;;;2.30;0.90;;;22.30;69.20;;;;;;5073231;28;20031;-80
2022/07/16 12:48:59;;;;;;;4.55;1.30;;;22.40;69.00;;;;;;5091230;28;20032;-80
2022/07/16 12:51:29;;;;;;;3.13;1.20;;;22.50;68.00;;;;;;5091335;28;20038;-80
2022/07/16 12:53:56;;;;;;;5.40;1.20;;;22.50;67.80;;;;;;5091213;28;20028;-80
2022/07/16 12:59:06;;;;;;;5.25;1.52;;;22.70;67.80;;;;;;5091019;28;20032;-81
2022/07/16 13:01:32;;;;;;;7.10;1.52;;;22.70;68.30;;;;;;5091170;28;20024;-81